Pilot L239 — OJ9461 — position and weather

sailwx.info

Track history (hours):
 
Tides and Currents Weather Stations Pressure Air Temp Water Temp Dewpoint Dewpoint Depression Visibility Wind Speed Wind Dir Waves Ship Positions

Pilot L239

Last reported at 2017-Aug-18 18:00 UTC. Time now 2017-Aug-18 18:16 UTC.
Position N 60°06' E 024°58'.

Length 15 m.

Type: Pilot. MMSI: 230035440.

Date/timePositionNaut miles runAvg speedWind from/ knotsBaromVisibWave heightAir tempDewpointWater temp
2017-Aug-18 18:00N 60°06' E 024°58'0 0.0
2017-Aug-18 17:30N 60°06' E 024°58'0 0.0
2017-Aug-18 17:00N 60°06' E 024°58'0 0.0
2017-Aug-18 16:30N 60°06' E 024°58'0 0.0
2017-Aug-18 16:00N 60°06' E 024°58'4 7.8
2017-Aug-18 15:31N 60°10' E 024°58'0 0.0
2017-Aug-18 15:00N 60°10' E 024°58'0 0.0
2017-Aug-18 14:00N 60°10' E 024°58'0 0.0
2017-Aug-18 13:30N 60°10' E 024°58'0 0.0
2017-Aug-18 13:00N 60°10' E 024°58'0 0.0
2017-Aug-18 12:30N 60°10' E 024°58'0 0.0
2017-Aug-18 12:00N 60°10' E 024°58'0 0.0
2017-Aug-18 11:30N 60°10' E 024°58'0 0.0
2017-Aug-18 11:00N 60°10' E 024°58'2 3.1
2017-Aug-18 10:30N 60°11' E 025°01'4 8.8
2017-Aug-18 10:00N 60°06' E 024°58'0 0.0
2017-Aug-18 09:30N 60°06' E 024°58'0 0.0
2017-Aug-18 09:00N 60°06' E 024°58'0 0.0
2017-Aug-18 08:30N 60°06' E 024°58'0 0.0
2017-Aug-18 08:00N 60°06' E 024°58'0 0.0
2017-Aug-18 07:30N 60°06' E 024°58'0 0.9
2017-Aug-18 07:00N 60°06' E 024°59'3 5.5
2017-Aug-18 06:30N 60°07' E 025°05'3 6.3
2017-Aug-18 06:01N 60°06' E 024°58'0 0.0
2017-Aug-18 05:30N 60°06' E 024°58'0 0.0
2017-Aug-18 05:00N 60°06' E 024°58'0 0.0
2017-Aug-18 04:30N 60°06' E 024°58'510.8
2017-Aug-18 04:00N 60°01' E 024°59'510.7
2017-Aug-18 03:30N 60°06' E 024°58'0 0.0
2017-Aug-18 03:01N 60°06' E 024°58'0 0.0
2017-Aug-18 02:30N 60°06' E 024°58'1 2.4
2017-Aug-18 02:01N 60°05' E 024°58'1 2.4
2017-Aug-18 01:30N 60°06' E 024°58'4 9.0
2017-Aug-18 01:01N 60°05' E 025°07'2 4.4
2017-Aug-18 00:31N 60°05' E 025°03'2 4.7
2017-Aug-18 00:00N 60°06' E 024°58'0 0.0
2017-Aug-17 23:30N 60°06' E 024°58'0 0.0
2017-Aug-17 23:00N 60°06' E 024°58'0 0.0
2017-Aug-17 22:30N 60°06' E 024°58'0 0.0
2017-Aug-17 22:00N 60°06' E 024°58'0 0.0
2017-Aug-17 21:30N 60°06' E 024°58'0 0.0
2017-Aug-17 21:00N 60°06' E 024°58'0 0.0
2017-Aug-17 20:30N 60°06' E 024°58'0 0.0
2017-Aug-17 20:00N 60°06' E 024°58'0 0.0
2017-Aug-17 19:30N 60°06' E 024°58'0 0.0
2017-Aug-17 19:00N 60°06' E 024°58'0 0.0
2017-Aug-17 18:31N 60°06' E 024°58'0 0.0
2017-Aug-17 18:00N 60°06' E 024°58'0 0.0
2017-Aug-17 17:30N 60°06' E 024°58'3 6.4
2017-Aug-17 17:01N 60°05' E 025°04'3 5.1
2017-Aug-17 16:31N 60°07' E 025°00'1 1.9
2017-Aug-17 16:00N 60°06' E 024°58'0 0.0
2017-Aug-17 15:30N 60°06' E 024°58'0 0.0
2017-Aug-17 15:00N 60°06' E 024°58'5 9.3
2017-Aug-17 14:31N 60°02' E 024°54'1 1.1
2017-Aug-17 14:00N 60°02' E 024°55'5 9.1
2017-Aug-17 13:30N 60°06' E 024°58'0 1.0
2017-Aug-17 13:00N 60°06' E 024°58'0 0.0
2017-Aug-17 12:30N 60°06' E 024°58'5 9.8
2017-Aug-17 12:00N 60°02' E 024°54'5 9.8
2017-Aug-17 11:30N 60°06' E 024°58'2 4.3
2017-Aug-17 11:00N 60°08' E 024°60'2 4.0
2017-Aug-17 10:31N 60°10' E 024°58'0 0.8
2017-Aug-17 10:00N 60°10' E 024°59'0 0.9
2017-Aug-17 09:31N 60°10' E 024°58'1 1.3
2017-Aug-17 09:01N 60°10' E 024°59'4 7.3
2017-Aug-17 08:31N 60°06' E 024°58'0 0.0
2017-Aug-17 08:00N 60°06' E 024°58'0 0.0
2017-Aug-17 07:31N 60°06' E 024°58'0 0.0
2017-Aug-17 07:01N 60°06' E 024°58'0 0.0
2017-Aug-17 06:30N 60°06' E 024°58'0 0.0
2017-Aug-17 06:01N 60°06' E 024°58'0 0.0
2017-Aug-17 05:30N 60°06' E 024°58'0 0.0
2017-Aug-17 05:01N 60°06' E 024°58'0 0.0
2017-Aug-17 04:30N 60°06' E 024°58'0 0.1
2017-Aug-17 04:01N 60°06' E 024°58'0 0.1
2017-Aug-17 03:30N 60°06' E 024°58'612.5
2017-Aug-17 03:00N 60°00' E 024°59'0 0.4
2017-Aug-17 02:31N 60°00' E 024°58'612.3
2017-Aug-17 02:00N 60°06' E 024°58'510.9
2017-Aug-17 01:30N 60°04' E 025°09'510.8
2017-Aug-17 01:00N 60°06' E 024°58'0 0.0
2017-Aug-17 00:30N 60°06' E 024°58'0 0.0
2017-Aug-17 00:00N 60°06' E 024°58'0 0.0
2017-Aug-16 23:30N 60°06' E 024°58'0 0.0
2017-Aug-16 23:00N 60°06' E 024°58'0 0.0
2017-Aug-16 22:30N 60°06' E 024°58'0 0.1
2017-Aug-16 22:01N 60°06' E 024°58'3 5.2
2017-Aug-16 21:30N 60°07' E 025°04'3 5.2
2017-Aug-16 21:00N 60°06' E 024°58'0 0.0
2017-Aug-16 20:30N 60°06' E 024°58'0 0.0
2017-Aug-16 20:00N 60°06' E 024°58'0 0.0
2017-Aug-16 19:30N 60°06' E 024°58'0 0.7
2017-Aug-16 19:00N 60°06' E 024°59'3 5.2
2017-Aug-16 18:31N 60°07' E 025°04'3 5.8
2017-Aug-16 18:00N 60°06' E 024°58'0 0.0
2017-Aug-16 17:31N 60°06' E 024°58'0 0.0
2017-Aug-16 17:01N 60°06' E 024°58'0 0.0
2017-Aug-16 16:30N 60°06' E 024°58'0 0.0
2017-Aug-16 16:01N 60°06' E 024°58'0 0.0
2017-Aug-16 15:30N 60°06' E 024°58'0 0.0
2017-Aug-16 15:00N 60°06' E 024°58'4 7.1
2017-Aug-16 14:31N 60°03' E 024°55'4 7.1
2017-Aug-16 14:01N 60°06' E 024°58'0 0.1
2017-Aug-16 13:30N 60°06' E 024°58'5 9.3
2017-Aug-16 13:00N 60°06' E 025°08'5 9.3
2017-Aug-16 12:30N 60°06' E 024°58'0 0.0
2017-Aug-16 12:00N 60°06' E 024°58'0 0.0
2017-Aug-16 11:30N 60°06' E 024°58'0 0.0
2017-Aug-16 11:00N 60°06' E 024°58'4 8.9
2017-Aug-16 10:31N 60°11' E 025°01'4 8.7
2017-Aug-16 10:00N 60°06' E 024°58'0 0.0
2017-Aug-16 09:30N 60°06' E 024°58'0 0.0
2017-Aug-16 09:00N 60°06' E 024°58'0 0.0
2017-Aug-16 08:31N 60°06' E 024°58'0 0.0
2017-Aug-16 08:00N 60°06' E 024°58'0 0.0
2017-Aug-16 07:30N 60°06' E 024°58'0 0.0
2017-Aug-16 07:00N 60°06' E 024°58'0 0.0
2017-Aug-16 06:30N 60°06' E 024°58'0 0.0
2017-Aug-16 06:00N 60°06' E 024°58'0 0.0
2017-Aug-16 05:30N 60°06' E 024°58'2 4.7
2017-Aug-16 05:00N 60°05' E 025°03'2 3.7
2017-Aug-16 04:30N 60°07' E 024°60'815.2
2017-Aug-16 04:00N 59°59' E 024°58'714.6
2017-Aug-16 03:30N 60°06' E 024°58'0 0.0
2017-Aug-16 03:01N 60°06' E 024°58'0 0.0
2017-Aug-16 02:30N 60°06' E 024°58'0 0.0
2017-Aug-16 02:00N 60°06' E 024°58'0 0.0
2017-Aug-16 01:30N 60°06' E 024°58'0 0.0
2017-Aug-16 01:00N 60°06' E 024°58'0 0.0
2017-Aug-16 00:30N 60°06' E 024°58'0 0.0
2017-Aug-16 00:00N 60°06' E 024°58'0 0.0
2017-Aug-15 23:30N 60°06' E 024°58'0 0.0
2017-Aug-15 23:00N 60°06' E 024°58'0 0.0
2017-Aug-15 22:31N 60°06' E 024°58'0 0.0
2017-Aug-15 22:00N 60°06' E 024°58'0 0.0
2017-Aug-15 21:30N 60°06' E 024°58'0 0.0
2017-Aug-15 21:00N 60°06' E 024°58'0 0.0
2017-Aug-15 20:30N 60°06' E 024°58'0 0.0
2017-Aug-15 20:00N 60°06' E 024°58'0 0.0
2017-Aug-15 19:30N 60°06' E 024°58'0 0.0
2017-Aug-15 19:00N 60°06' E 024°58'0 0.0
2017-Aug-15 18:30N 60°06' E 024°58'0 0.0
2017-Aug-15 18:00N 60°06' E 024°58'0 0.0
2017-Aug-15 17:30N 60°06' E 024°58'4 8.2
2017-Aug-15 17:01N 60°06' E 025°07'3 6.8
2017-Aug-15 16:30N 60°07' E 024°60'1 1.4
2017-Aug-15 16:01N 60°06' E 024°58'0 0.0
2017-Aug-15 15:30N 60°06' E 024°58'0 0.7
2017-Aug-15 15:00N 60°06' E 024°59'0 0.7
2017-Aug-15 14:30N 60°06' E 024°58'4 7.4
2017-Aug-15 14:01N 60°03' E 024°57'3 6.0
2017-Aug-15 13:31N 60°06' E 024°58'1 1.4
2017-Aug-15 13:00N 60°06' E 024°58'0 0.0
2017-Aug-15 12:31N 60°06' E 024°58'4 7.7
2017-Aug-15 12:01N 60°10' E 024°58'0 0.0
2017-Aug-15 11:31N 60°10' E 024°58'0 0.0
2017-Aug-15 11:00N 60°10' E 024°58'0 0.0
2017-Aug-15 10:31N 60°10' E 024°58'4 7.7
2017-Aug-15 10:00N 60°06' E 024°58'0 0.0
2017-Aug-15 09:30N 60°06' E 024°58'0 0.0
2017-Aug-15 09:01N 60°06' E 024°58'0 0.0
2017-Aug-15 08:30N 60°06' E 024°58'0 0.0
2017-Aug-15 08:00N 60°06' E 024°58'0 0.0
2017-Aug-15 07:30N 60°06' E 024°58'0 1.0
2017-Aug-15 07:01N 60°06' E 024°59'3 5.9
2017-Aug-15 06:30N 60°07' E 025°05'3 6.8
2017-Aug-15 06:00N 60°06' E 024°58'0 0.0
2017-Aug-15 05:31N 60°06' E 024°58'3 6.2
2017-Aug-15 05:00N 60°05' E 025°04'3 5.8
2017-Aug-15 04:31N 60°06' E 024°59'0 0.4
2017-Aug-15 04:00N 60°06' E 024°58'2 3.2
2017-Aug-15 03:31N 60°05' E 024°58'2 3.2
2017-Aug-15 03:00N 60°06' E 024°58'510.1
2017-Aug-15 02:30N 60°01' E 024°58'510.1
2017-Aug-15 02:01N 60°06' E 024°58'0 0.0
2017-Aug-15 01:30N 60°06' E 024°58'0 0.0
2017-Aug-15 01:00N 60°06' E 024°58'0 0.0
2017-Aug-15 00:30N 60°06' E 024°58'0 0.0
2017-Aug-15 00:01N 60°06' E 024°58'0 0.0
2017-Aug-14 23:30N 60°06' E 024°58'0 0.0
2017-Aug-14 23:00N 60°06' E 024°58'510.1
2017-Aug-14 22:31N 60°06' E 025°09'510.1
2017-Aug-14 22:00N 60°06' E 024°58'0 0.0
2017-Aug-14 21:30N 60°06' E 024°58'0 0.0
2017-Aug-14 21:00N 60°06' E 024°58'0 0.0
2017-Aug-14 20:30N 60°06' E 024°58'0 0.0
2017-Aug-14 20:00N 60°06' E 024°58'0 0.0
2017-Aug-14 19:30N 60°06' E 024°58'0 0.0
2017-Aug-14 19:00N 60°06' E 024°58'0 0.0
2017-Aug-14 18:30N 60°06' E 024°58'0 0.0
2017-Aug-14 18:00N 60°06' E 024°58'0 0.0
2017-Aug-14 17:30N 60°06' E 024°58'0 0.0
2017-Aug-14 17:00N 60°06' E 024°58'0 0.0
2017-Aug-14 16:30N 60°06' E 024°58'0 0.0
2017-Aug-14 16:00N 60°06' E 024°58'2 4.1
2017-Aug-14 15:30N 60°04' E 024°57'3 7.0
2017-Aug-14 15:01N 60°02' E 025°01'510.0
2017-Aug-14 14:31N 60°01' E 025°11'713.4
2017-Aug-14 14:01N 60°06' E 025°01'1 2.2
2017-Aug-14 13:31N 60°07' E 025°02'2 3.1
2017-Aug-14 13:00N 60°05' E 025°03'3 5.3
2017-Aug-14 12:30N 60°06' E 024°58'0 0.0
2017-Aug-14 12:00N 60°06' E 024°58'0 0.0
2017-Aug-14 11:30N 60°06' E 024°58'0 0.0
2017-Aug-14 11:00N 60°06' E 024°58'1 2.8
2017-Aug-14 10:31N 60°08' E 024°59'3 5.1
2017-Aug-14 10:00N 60°10' E 024°58'1 2.5
2017-Aug-14 09:31N 60°09' E 024°60'3 6.1
2017-Aug-14 09:00N 60°06' E 024°58'0 0.0
2017-Aug-14 08:31N 60°06' E 024°58'4 7.7
2017-Aug-14 08:00N 60°10' E 024°58'2 3.7
2017-Aug-14 07:31N 60°09' E 024°60'3 6.7
2017-Aug-14 07:01N 60°07' E 025°05'1 1.1
2017-Aug-14 06:30N 60°07' E 025°04'3 5.8
2017-Aug-14 06:01N 60°06' E 024°58'0 0.0
2017-Aug-14 05:31N 60°06' E 024°58'0 0.0
2017-Aug-14 05:01N 60°06' E 024°58'0 0.0
2017-Aug-14 04:31N 60°06' E 024°58'3 5.5
2017-Aug-14 04:00N 60°04' E 024°58'2 3.4
2017-Aug-14 03:31N 60°05' E 024°58'0 0.4
2017-Aug-14 03:00N 60°05' E 024°58'1 2.5
2017-Aug-14 02:30N 60°06' E 024°58'510.7
2017-Aug-14 02:00N 60°06' E 025°09'510.7
2017-Aug-14 01:30N 60°06' E 024°58'0 0.0
2017-Aug-14 01:00N 60°06' E 024°58'0 0.0
2017-Aug-14 00:31N 60°06' E 024°58'0 0.0
2017-Aug-14 00:01N 60°06' E 024°58'0 0.0
2017-Aug-13 23:30N 60°06' E 024°58'0 0.0
2017-Aug-13 23:00N 60°06' E 024°58'0 0.0
2017-Aug-13 22:30N 60°06' E 024°58'0 0.0
2017-Aug-13 22:00N 60°06' E 024°58'0 0.0
2017-Aug-13 21:31N 60°06' E 024°58'0 0.0
2017-Aug-13 21:00N 60°06' E 024°58'0 0.0
2017-Aug-13 20:30N 60°06' E 024°58'0 0.0
2017-Aug-13 20:00N 60°06' E 024°58'0 0.0
2017-Aug-13 19:30N 60°06' E 024°58'0 0.0
2017-Aug-13 19:00N 60°06' E 024°58'0 0.0
2017-Aug-13 18:30N 60°06' E 024°58'0 0.0
2017-Aug-13 18:00N 60°06' E 024°58'3 5.2
2017-Aug-13 17:31N 60°09' E 024°56'2 4.1
2017-Aug-13 17:00N 60°10' E 024°58'0 0.3
2017-Aug-13 16:30N 60°10' E 024°58'815.3
2017-Aug-13 16:01N 60°03' E 024°58'4 7.6
2017-Aug-13 15:31N 60°06' E 024°58'0 0.0
2017-Aug-13 15:01N 60°06' E 024°58'0 0.3
2017-Aug-13 14:31N 60°06' E 024°58'0 0.3
2017-Aug-13 14:01N 60°06' E 024°58'0 0.0
2017-Aug-13 13:31N 60°06' E 024°58'0 0.0
2017-Aug-13 13:01N 60°06' E 024°58'4 7.7
2017-Aug-13 12:30N 60°10' E 024°58'0 0.0
2017-Aug-13 12:00N 60°10' E 024°58'1 2.9
2017-Aug-13 11:31N 60°09' E 024°55'3 6.8
2017-Aug-13 11:00N 60°06' E 024°58'0 0.0
2017-Aug-13 10:30N 60°06' E 024°58'0 0.0
2017-Aug-13 10:00N 60°06' E 024°58'0 0.0
2017-Aug-13 09:30N 60°06' E 024°58'4 7.2
2017-Aug-13 09:01N 60°10' E 024°56'1 1.4
2017-Aug-13 08:30N 60°09' E 024°55'3 6.2
2017-Aug-13 08:00N 60°06' E 024°58'0 0.0
2017-Aug-13 07:31N 60°06' E 024°58'0 0.0
2017-Aug-13 07:01N 60°06' E 024°58'0 0.0
2017-Aug-13 06:30N 60°06' E 024°58'0 0.0
2017-Aug-13 06:00N 60°06' E 024°58'0 0.0
2017-Aug-13 05:30N 60°06' E 024°58'0 0.0
2017-Aug-13 05:00N 60°06' E 024°58'0 0.0
2017-Aug-13 04:30N 60°06' E 024°58'0 0.0
2017-Aug-13 04:00N 60°06' E 024°58'2 3.3
2017-Aug-13 03:31N 60°05' E 024°58'2 3.3
2017-Aug-13 03:00N 60°06' E 024°58'0 0.0
2017-Aug-13 02:30N 60°06' E 024°58'0 0.0
2017-Aug-13 02:00N 60°06' E 024°58'0 0.0
2017-Aug-13 01:30N 60°06' E 024°58'0 0.0
2017-Aug-13 01:00N 60°06' E 024°58'0 0.0
2017-Aug-13 00:30N 60°06' E 024°58'0 0.0
2017-Aug-13 00:00N 60°06' E 024°58'0 0.0
2017-Aug-12 23:30N 60°06' E 024°58'0 0.0
2017-Aug-12 23:00N 60°06' E 024°58'0 0.0
2017-Aug-12 22:30N 60°06' E 024°58'0 0.0
2017-Aug-12 22:00N 60°06' E 024°58'0 0.0
2017-Aug-12 21:30N 60°06' E 024°58'0 0.0
2017-Aug-12 21:00N 60°06' E 024°58'0 0.0
2017-Aug-12 20:30N 60°06' E 024°58'0 0.0
2017-Aug-12 20:00N 60°06' E 024°58'0 0.0
2017-Aug-12 19:30N 60°06' E 024°58'0 0.0
2017-Aug-12 19:00N 60°06' E 024°58'0 0.0
2017-Aug-12 18:30N 60°06' E 024°58'0 0.0
2017-Aug-12 18:00N 60°06' E 024°58'0 0.0
2017-Aug-12 17:30N 60°06' E 024°58'0 0.0
2017-Aug-12 17:00N 60°06' E 024°58'0 0.0
2017-Aug-12 16:30N 60°06' E 024°58'0 0.0
2017-Aug-12 16:01N 60°06' E 024°58'5 9.1
2017-Aug-12 15:31N 60°06' E 025°08'5 9.1
2017-Aug-12 15:00N 60°06' E 024°58'1 1.6
2017-Aug-12 14:31N 60°07' E 024°59'3 6.3
2017-Aug-12 14:01N 60°10' E 024°58'2 3.4
2017-Aug-12 13:30N 60°11' E 025°01'0 0.0
2017-Aug-12 13:00N 60°11' E 025°01'0 0.0
2017-Aug-12 12:30N 60°11' E 025°01'4 7.2
2017-Aug-12 12:01N 60°07' E 024°59'4 8.6
2017-Aug-12 11:31N 60°05' E 025°06'4 8.1
2017-Aug-12 11:00N 60°06' E 024°58'0 0.0
2017-Aug-12 10:30N 60°06' E 024°58'0 0.0
2017-Aug-12 10:00N 60°06' E 024°58'0 0.0
2017-Aug-12 09:30N 60°06' E 024°58'0 0.0
2017-Aug-12 09:00N 60°06' E 024°58'0 0.0
2017-Aug-12 08:30N 60°06' E 024°58'0 0.0
2017-Aug-12 08:00N 60°06' E 024°58'0 0.0
2017-Aug-12 07:30N 60°06' E 024°58'0 0.0
2017-Aug-12 07:00N 60°06' E 024°58'0 0.0
2017-Aug-12 06:30N 60°06' E 024°58'0 0.0
2017-Aug-12 06:00N 60°06' E 024°58'0 0.0
2017-Aug-12 05:30N 60°06' E 024°58'0 0.0
2017-Aug-12 05:00N 60°06' E 024°58'0 0.0
2017-Aug-12 04:30N 60°06' E 024°58'0 0.0
2017-Aug-12 04:00N 60°06' E 024°58'0 0.0
2017-Aug-12 03:30N 60°06' E 024°58'0 0.0
2017-Aug-12 03:00N 60°06' E 024°58'0 0.0
2017-Aug-12 02:30N 60°06' E 024°58'0 0.0
2017-Aug-12 02:00N 60°06' E 024°58'0 0.0
2017-Aug-12 01:30N 60°06' E 024°58'0 0.0
2017-Aug-12 01:00N 60°06' E 024°58'0 0.0
2017-Aug-12 00:30N 60°06' E 024°58'0 0.0
2017-Aug-12 00:00N 60°06' E 024°58'0 0.0
2017-Aug-11 23:30N 60°06' E 024°58'0 0.0
2017-Aug-11 23:00N 60°06' E 024°58'0 0.0
2017-Aug-11 22:30N 60°06' E 024°58'0 0.0
2017-Aug-11 22:00N 60°06' E 024°58'0 0.0
2017-Aug-11 21:30N 60°06' E 024°58'0 0.0
2017-Aug-11 21:00N 60°06' E 024°58'0 0.0
2017-Aug-11 20:30N 60°06' E 024°58'510.1
2017-Aug-11 20:00N 60°02' E 024°55'510.0
2017-Aug-11 19:30N 60°06' E 024°58'0 0.3
2017-Aug-11 19:01N 60°06' E 024°59'0 0.3
2017-Aug-11 18:31N 60°06' E 024°58'611.9
2017-Aug-11 18:00N 60°06' E 025°10'1 1.2
2017-Aug-11 17:31N 60°05' E 025°10'1 2.6
2017-Aug-11 17:00N 60°06' E 025°08'5 9.6
2017-Aug-11 16:30N 60°06' E 024°58'0 0.0
2017-Aug-11 16:00N 60°06' E 024°58'1 2.6
2017-Aug-11 15:30N 60°05' E 024°58'5 9.4
2017-Aug-11 15:00N 60°10' E 024°58'7 7.4
2017-Aug-11 14:01N 60°02' E 024°58'4 8.1
2017-Aug-11 13:30N 60°06' E 024°58'0 0.0
2017-Aug-11 13:00N 60°06' E 024°58'0 0.0
2017-Aug-11 12:30N 60°06' E 024°58'0 0.0
2017-Aug-11 12:00N 60°06' E 024°58'0 0.0
2017-Aug-11 11:30N 60°06' E 024°58'0 0.0
2017-Aug-11 11:00N 60°06' E 024°58'0 0.0
2017-Aug-11 10:30N 60°06' E 024°58'0 0.0
2017-Aug-11 10:00N 60°06' E 024°58'0 0.0
2017-Aug-11 09:30N 60°06' E 024°58'0 0.0
2017-Aug-11 09:00N 60°06' E 024°58'4 7.2
2017-Aug-11 08:31N 60°10' E 024°56'4 7.1
2017-Aug-11 08:00N 60°06' E 024°58'1 2.8
2017-Aug-11 07:31N 60°05' E 024°58'3 6.8
2017-Aug-11 07:01N 60°05' E 025°05'4 7.3
2017-Aug-11 06:30N 60°06' E 024°58'0 0.0
2017-Aug-11 06:00N 60°06' E 024°58'0 0.0
2017-Aug-11 05:30N 60°06' E 024°58'0 0.0
2017-Aug-11 05:00N 60°06' E 024°58'0 0.0
2017-Aug-11 04:30N 60°06' E 024°58'4 7.7
2017-Aug-11 04:01N 60°10' E 024°59'1 1.5
2017-Aug-11 03:30N 60°10' E 024°58'713.7
2017-Aug-11 03:01N 60°03' E 024°58'1 2.8
2017-Aug-11 02:30N 60°05' E 024°58'2 3.2
2017-Aug-11 02:00N 60°06' E 024°58'0 0.0
2017-Aug-11 01:31N 60°06' E 024°58'5 9.4
2017-Aug-11 01:01N 60°05' E 025°07'5 9.4
2017-Aug-11 00:30N 60°06' E 024°58'0 0.0
2017-Aug-11 00:01N 60°06' E 024°58'0 0.0
2017-Aug-10 23:30N 60°06' E 024°58'0 0.0
2017-Aug-10 23:00N 60°06' E 024°58'0 0.0
2017-Aug-10 22:30N 60°06' E 024°58'0 0.0
2017-Aug-10 22:00N 60°06' E 024°58'0 0.0
2017-Aug-10 21:30N 60°06' E 024°58'0 0.0
2017-Aug-10 21:00N 60°06' E 024°58'0 0.0
2017-Aug-10 20:30N 60°06' E 024°58'0 0.0
2017-Aug-10 20:00N 60°06' E 024°58'0 0.0
2017-Aug-10 19:30N 60°06' E 024°58'0 0.0
2017-Aug-10 19:00N 60°06' E 024°58'0 0.0
2017-Aug-10 18:30N 60°06' E 024°58'0 0.0
2017-Aug-10 18:00N 60°06' E 024°58'3 6.1
2017-Aug-10 17:31N 60°09' E 024°60'4 8.3
2017-Aug-10 17:00N 60°07' E 025°06'2 4.9
2017-Aug-10 16:30N 60°07' E 025°01'1 2.8
2017-Aug-10 16:00N 60°06' E 024°58'0 0.0
2017-Aug-10 15:30N 60°06' E 024°58'0 0.0
2017-Aug-10 15:00N 60°06' E 024°58'3 6.4
2017-Aug-10 14:31N 60°03' E 024°58'2 1.6
2017-Aug-10 13:31N 60°02' E 024°56'4 9.0
2017-Aug-10 13:00N 60°06' E 025°00'1 1.2
2017-Aug-10 12:31N 60°06' E 025°01'1 2.9
2017-Aug-10 12:01N 60°06' E 024°58'0 0.0
2017-Aug-10 11:30N 60°06' E 024°58'0 0.0
2017-Aug-10 11:01N 60°06' E 024°58'0 0.0
2017-Aug-10 10:31N 60°06' E 024°58'0 0.0
2017-Aug-10 10:00N 60°06' E 024°58'0 0.0
2017-Aug-10 09:31N 60°06' E 024°58'0 0.0
2017-Aug-10 09:01N 60°06' E 024°58'0 0.0
2017-Aug-10 08:31N 60°06' E 024°58'0 0.0
2017-Aug-10 08:01N 60°06' E 024°58'0 0.0
2017-Aug-10 07:31N 60°06' E 024°58'0 0.0
2017-Aug-10 07:00N 60°06' E 024°58'0 0.0
2017-Aug-10 06:31N 60°06' E 024°58'0 0.0
2017-Aug-10 06:01N 60°06' E 024°58'0 0.0
2017-Aug-10 05:31N 60°06' E 024°58'0 0.0
2017-Aug-10 05:01N 60°06' E 024°58'0 0.0
2017-Aug-10 04:30N 60°06' E 024°58'0 0.0
2017-Aug-10 04:01N 60°06' E 024°58'0 0.0
2017-Aug-10 03:30N 60°06' E 024°58'0 0.0
2017-Aug-10 03:01N 60°06' E 024°58'4 8.3
2017-Aug-10 02:30N 60°02' E 024°58'5 9.6
2017-Aug-10 02:00N 60°03' E 025°07'510.6
2017-Aug-10 01:30N 60°06' E 024°58'0 0.0
2017-Aug-10 01:00N 60°06' E 024°58'0 0.0
2017-Aug-10 00:30N 60°06' E 024°58'0 0.0
2017-Aug-10 00:00N 60°06' E 024°58'0 0.0
2017-Aug-09 23:30N 60°06' E 024°58'0 0.0
2017-Aug-09 23:00N 60°06' E 024°58'0 0.0
2017-Aug-09 22:30N 60°06' E 024°58'0 0.0
2017-Aug-09 22:00N 60°06' E 024°58'0 0.0
2017-Aug-09 21:30N 60°06' E 024°58'0 0.0
2017-Aug-09 21:00N 60°06' E 024°58'0 0.0
2017-Aug-09 20:31N 60°06' E 024°58'0 0.0
2017-Aug-09 20:00N 60°06' E 024°58'0 0.0
2017-Aug-09 19:30N 60°06' E 024°58'0 0.0
2017-Aug-09 19:00N 60°06' E 024°58'1 2.4
2017-Aug-09 18:30N 60°07' E 025°01'1 2.6
2017-Aug-09 18:01N 60°07' E 025°03'3 5.0
2017-Aug-09 17:31N 60°06' E 024°58'0 0.0
2017-Aug-09 17:01N 60°06' E 024°58'4 8.7
2017-Aug-09 16:31N 60°02' E 024°58'713.3
2017-Aug-09 16:01N 60°05' E 025°10'611.4
2017-Aug-09 15:30N 60°06' E 024°58'0 0.0
2017-Aug-09 15:01N 60°06' E 024°58'2 4.7
2017-Aug-09 14:31N 60°04' E 024°57'2 4.7
2017-Aug-09 14:01N 60°06' E 024°58'0 0.0
2017-Aug-09 13:31N 60°06' E 024°58'0 0.0
2017-Aug-09 13:01N 60°06' E 024°58'0 0.0
2017-Aug-09 12:30N 60°06' E 024°58'0 0.0
2017-Aug-09 12:01N 60°06' E 024°58'0 0.0
2017-Aug-09 11:31N 60°06' E 024°58'0 0.0
2017-Aug-09 11:00N 60°06' E 024°58'4 7.6
2017-Aug-09 10:30N 60°10' E 024°59'4 7.2
2017-Aug-09 10:01N 60°07' E 024°59'0 0.4
2017-Aug-09 09:30N 60°06' E 024°58'0 0.0
2017-Aug-09 09:00N 60°06' E 024°58'0 0.0
2017-Aug-09 08:30N 60°06' E 024°58'4 7.4
2017-Aug-09 08:01N 60°10' E 024°59'918.1
2017-Aug-09 07:30N 60°01' E 024°57'510.8
2017-Aug-09 07:00N 60°06' E 024°58'0 0.0
2017-Aug-09 06:30N 60°06' E 024°58'0 0.0
2017-Aug-09 06:00N 60°06' E 024°58'0 0.0
2017-Aug-09 05:30N 60°06' E 024°58'510.8
2017-Aug-09 05:01N 60°05' E 025°09'510.8
2017-Aug-09 04:30N 60°06' E 024°58'2 4.4
2017-Aug-09 04:00N 60°04' E 024°58'2 4.4
2017-Aug-09 03:31N 60°06' E 024°58'0 0.0
2017-Aug-09 03:00N 60°06' E 024°58'0 0.0
2017-Aug-09 02:30N 60°06' E 024°58'0 0.0
2017-Aug-09 02:00N 60°06' E 024°58'0 0.0
2017-Aug-09 01:31N 60°06' E 024°58'0 0.0
2017-Aug-09 01:00N 60°06' E 024°58'0 0.0
2017-Aug-09 00:30N 60°06' E 024°58'0 0.0
2017-Aug-09 00:00N 60°06' E 024°58'0 0.0
2017-Aug-08 23:30N 60°06' E 024°58'2 3.8
2017-Aug-08 23:00N 60°06' E 025°02'2 3.4
2017-Aug-08 22:30N 60°06' E 024°59'0 0.5
2017-Aug-08 22:00N 60°06' E 024°58'0 0.0
2017-Aug-08 21:30N 60°06' E 024°58'0 0.0
2017-Aug-08 21:00N 60°06' E 024°58'0 0.0
2017-Aug-08 20:30N 60°06' E 024°58'2 3.5
2017-Aug-08 20:00N 60°07' E 025°02'0 0.9
2017-Aug-08 19:31N 60°07' E 025°03'2 4.4
2017-Aug-08 19:00N 60°06' E 024°58'0 0.0
2017-Aug-08 18:30N 60°06' E 024°58'  
Track history (hours):
 
Tides and Currents Weather Stations Pressure Air Temp Water Temp Dewpoint Dewpoint Depression Visibility Wind Speed Wind Dir Waves Ship Positions

Pilot L239

Last reported at 2017-Aug-18 18:00 UTC. Time now 2017-Aug-18 18:16 UTC.
Position N 60°06' E 024°58'.

Length 15 m.

Type: Pilot. MMSI: 230035440.

Date/timePositionNaut miles runAvg speedWind from/ knotsBaromVisibWave heightAir tempDewpointWater temp
2017-Aug-18 18:00N 60°06' E 024°58'0 0.0
2017-Aug-18 17:30N 60°06' E 024°58'0 0.0
2017-Aug-18 17:00N 60°06' E 024°58'0 0.0
2017-Aug-18 16:30N 60°06' E 024°58'0 0.0
2017-Aug-18 16:00N 60°06' E 024°58'4 7.8
2017-Aug-18 15:31N 60°10' E 024°58'0 0.0
2017-Aug-18 15:00N 60°10' E 024°58'0 0.0
2017-Aug-18 14:00N 60°10' E 024°58'0 0.0
2017-Aug-18 13:30N 60°10' E 024°58'0 0.0
2017-Aug-18 13:00N 60°10' E 024°58'0 0.0
2017-Aug-18 12:30N 60°10' E 024°58'0 0.0
2017-Aug-18 12:00N 60°10' E 024°58'0 0.0
2017-Aug-18 11:30N 60°10' E 024°58'0 0.0
2017-Aug-18 11:00N 60°10' E 024°58'2 3.1
2017-Aug-18 10:30N 60°11' E 025°01'4 8.8
2017-Aug-18 10:00N 60°06' E 024°58'0 0.0
2017-Aug-18 09:30N 60°06' E 024°58'0 0.0
2017-Aug-18 09:00N 60°06' E 024°58'0 0.0
2017-Aug-18 08:30N 60°06' E 024°58'0 0.0
2017-Aug-18 08:00N 60°06' E 024°58'0 0.0
2017-Aug-18 07:30N 60°06' E 024°58'0 0.9
2017-Aug-18 07:00N 60°06' E 024°59'3 5.5
2017-Aug-18 06:30N 60°07' E 025°05'3 6.3
2017-Aug-18 06:01N 60°06' E 024°58'0 0.0
2017-Aug-18 05:30N 60°06' E 024°58'0 0.0
2017-Aug-18 05:00N 60°06' E 024°58'0 0.0
2017-Aug-18 04:30N 60°06' E 024°58'510.8
2017-Aug-18 04:00N 60°01' E 024°59'510.7
2017-Aug-18 03:30N 60°06' E 024°58'0 0.0
2017-Aug-18 03:01N 60°06' E 024°58'0 0.0
2017-Aug-18 02:30N 60°06' E 024°58'1 2.4
2017-Aug-18 02:01N 60°05' E 024°58'1 2.4
2017-Aug-18 01:30N 60°06' E 024°58'4 9.0
2017-Aug-18 01:01N 60°05' E 025°07'2 4.4
2017-Aug-18 00:31N 60°05' E 025°03'2 4.7
2017-Aug-18 00:00N 60°06' E 024°58'0 0.0
2017-Aug-17 23:30N 60°06' E 024°58'0 0.0
2017-Aug-17 23:00N 60°06' E 024°58'0 0.0
2017-Aug-17 22:30N 60°06' E 024°58'0 0.0
2017-Aug-17 22:00N 60°06' E 024°58'0 0.0
2017-Aug-17 21:30N 60°06' E 024°58'0 0.0
2017-Aug-17 21:00N 60°06' E 024°58'0 0.0
2017-Aug-17 20:30N 60°06' E 024°58'0 0.0
2017-Aug-17 20:00N 60°06' E 024°58'0 0.0
2017-Aug-17 19:30N 60°06' E 024°58'0 0.0
2017-Aug-17 19:00N 60°06' E 024°58'0 0.0
2017-Aug-17 18:31N 60°06' E 024°58'0 0.0
2017-Aug-17 18:00N 60°06' E 024°58'0 0.0
2017-Aug-17 17:30N 60°06' E 024°58'3 6.4
2017-Aug-17 17:01N 60°05' E 025°04'3 5.1
2017-Aug-17 16:31N 60°07' E 025°00'1 1.9
2017-Aug-17 16:00N 60°06' E 024°58'0 0.0
2017-Aug-17 15:30N 60°06' E 024°58'0 0.0
2017-Aug-17 15:00N 60°06' E 024°58'5 9.3
2017-Aug-17 14:31N 60°02' E 024°54'1 1.1
2017-Aug-17 14:00N 60°02' E 024°55'5 9.1
2017-Aug-17 13:30N 60°06' E 024°58'0 1.0
2017-Aug-17 13:00N 60°06' E 024°58'0 0.0
2017-Aug-17 12:30N 60°06' E 024°58'5 9.8
2017-Aug-17 12:00N 60°02' E 024°54'5 9.8
2017-Aug-17 11:30N 60°06' E 024°58'2 4.3
2017-Aug-17 11:00N 60°08' E 024°60'2 4.0
2017-Aug-17 10:31N 60°10' E 024°58'0 0.8
2017-Aug-17 10:00N 60°10' E 024°59'0 0.9
2017-Aug-17 09:31N 60°10' E 024°58'1 1.3
2017-Aug-17 09:01N 60°10' E 024°59'4 7.3
2017-Aug-17 08:31N 60°06' E 024°58'0 0.0
2017-Aug-17 08:00N 60°06' E 024°58'0 0.0
2017-Aug-17 07:31N 60°06' E 024°58'0 0.0
2017-Aug-17 07:01N 60°06' E 024°58'0 0.0
2017-Aug-17 06:30N 60°06' E 024°58'0 0.0
2017-Aug-17 06:01N 60°06' E 024°58'0 0.0
2017-Aug-17 05:30N 60°06' E 024°58'0 0.0
2017-Aug-17 05:01N 60°06' E 024°58'0 0.0
2017-Aug-17 04:30N 60°06' E 024°58'0 0.1
2017-Aug-17 04:01N 60°06' E 024°58'0 0.1
2017-Aug-17 03:30N 60°06' E 024°58'612.5
2017-Aug-17 03:00N 60°00' E 024°59'0 0.4
2017-Aug-17 02:31N 60°00' E 024°58'612.3
2017-Aug-17 02:00N 60°06' E 024°58'510.9
2017-Aug-17 01:30N 60°04' E 025°09'510.8
2017-Aug-17 01:00N 60°06' E 024°58'0 0.0
2017-Aug-17 00:30N 60°06' E 024°58'0 0.0
2017-Aug-17 00:00N 60°06' E 024°58'0 0.0
2017-Aug-16 23:30N 60°06' E 024°58'0 0.0
2017-Aug-16 23:00N 60°06' E 024°58'0 0.0
2017-Aug-16 22:30N 60°06' E 024°58'0 0.1
2017-Aug-16 22:01N 60°06' E 024°58'3 5.2
2017-Aug-16 21:30N 60°07' E 025°04'3 5.2
2017-Aug-16 21:00N 60°06' E 024°58'0 0.0
2017-Aug-16 20:30N 60°06' E 024°58'0 0.0
2017-Aug-16 20:00N 60°06' E 024°58'0 0.0
2017-Aug-16 19:30N 60°06' E 024°58'0 0.7
2017-Aug-16 19:00N 60°06' E 024°59'3 5.2
2017-Aug-16 18:31N 60°07' E 025°04'3 5.8
2017-Aug-16 18:00N 60°06' E 024°58'0 0.0
2017-Aug-16 17:31N 60°06' E 024°58'0 0.0
2017-Aug-16 17:01N 60°06' E 024°58'0 0.0
2017-Aug-16 16:30N 60°06' E 024°58'0 0.0
2017-Aug-16 16:01N 60°06' E 024°58'0 0.0
2017-Aug-16 15:30N 60°06' E 024°58'0 0.0
2017-Aug-16 15:00N 60°06' E 024°58'4 7.1
2017-Aug-16 14:31N 60°03' E 024°55'4 7.1
2017-Aug-16 14:01N 60°06' E 024°58'0 0.1
2017-Aug-16 13:30N 60°06' E 024°58'5 9.3
2017-Aug-16 13:00N 60°06' E 025°08'5 9.3
2017-Aug-16 12:30N 60°06' E 024°58'0 0.0
2017-Aug-16 12:00N 60°06' E 024°58'0 0.0
2017-Aug-16 11:30N 60°06' E 024°58'0 0.0
2017-Aug-16 11:00N 60°06' E 024°58'4 8.9
2017-Aug-16 10:31N 60°11' E 025°01'4 8.7
2017-Aug-16 10:00N 60°06' E 024°58'0 0.0
2017-Aug-16 09:30N 60°06' E 024°58'0 0.0
2017-Aug-16 09:00N 60°06' E 024°58'0 0.0
2017-Aug-16 08:31N 60°06' E 024°58'0 0.0
2017-Aug-16 08:00N 60°06' E 024°58'0 0.0
2017-Aug-16 07:30N 60°06' E 024°58'0 0.0
2017-Aug-16 07:00N 60°06' E 024°58'0 0.0
2017-Aug-16 06:30N 60°06' E 024°58'0 0.0
2017-Aug-16 06:00N 60°06' E 024°58'0 0.0
2017-Aug-16 05:30N 60°06' E 024°58'2 4.7
2017-Aug-16 05:00N 60°05' E 025°03'2 3.7
2017-Aug-16 04:30N 60°07' E 024°60'815.2
2017-Aug-16 04:00N 59°59' E 024°58'714.6
2017-Aug-16 03:30N 60°06' E 024°58'0 0.0
2017-Aug-16 03:01N 60°06' E 024°58'0 0.0
2017-Aug-16 02:30N 60°06' E 024°58'0 0.0
2017-Aug-16 02:00N 60°06' E 024°58'0 0.0
2017-Aug-16 01:30N 60°06' E 024°58'0 0.0
2017-Aug-16 01:00N 60°06' E 024°58'0 0.0
2017-Aug-16 00:30N 60°06' E 024°58'0 0.0
2017-Aug-16 00:00N 60°06' E 024°58'0 0.0
2017-Aug-15 23:30N 60°06' E 024°58'0 0.0
2017-Aug-15 23:00N 60°06' E 024°58'0 0.0
2017-Aug-15 22:31N 60°06' E 024°58'0 0.0
2017-Aug-15 22:00N 60°06' E 024°58'0 0.0
2017-Aug-15 21:30N 60°06' E 024°58'0 0.0
2017-Aug-15 21:00N 60°06' E 024°58'0 0.0
2017-Aug-15 20:30N 60°06' E 024°58'0 0.0
2017-Aug-15 20:00N 60°06' E 024°58'0 0.0
2017-Aug-15 19:30N 60°06' E 024°58'0 0.0
2017-Aug-15 19:00N 60°06' E 024°58'0 0.0
2017-Aug-15 18:30N 60°06' E 024°58'0 0.0
2017-Aug-15 18:00N 60°06' E 024°58'0 0.0
2017-Aug-15 17:30N 60°06' E 024°58'4 8.2
2017-Aug-15 17:01N 60°06' E 025°07'3 6.8
2017-Aug-15 16:30N 60°07' E 024°60'1 1.4
2017-Aug-15 16:01N 60°06' E 024°58'0 0.0
2017-Aug-15 15:30N 60°06' E 024°58'0 0.7
2017-Aug-15 15:00N 60°06' E 024°59'0 0.7
2017-Aug-15 14:30N 60°06' E 024°58'4 7.4
2017-Aug-15 14:01N 60°03' E 024°57'3 6.0
2017-Aug-15 13:31N 60°06' E 024°58'1 1.4
2017-Aug-15 13:00N 60°06' E 024°58'0 0.0
2017-Aug-15 12:31N 60°06' E 024°58'4 7.7
2017-Aug-15 12:01N 60°10' E 024°58'0 0.0
2017-Aug-15 11:31N 60°10' E 024°58'0 0.0
2017-Aug-15 11:00N 60°10' E 024°58'0 0.0
2017-Aug-15 10:31N 60°10' E 024°58'4 7.7
2017-Aug-15 10:00N 60°06' E 024°58'0 0.0
2017-Aug-15 09:30N 60°06' E 024°58'0 0.0
2017-Aug-15 09:01N 60°06' E 024°58'0 0.0
2017-Aug-15 08:30N 60°06' E 024°58'0 0.0
2017-Aug-15 08:00N 60°06' E 024°58'0 0.0
2017-Aug-15 07:30N 60°06' E 024°58'0 1.0
2017-Aug-15 07:01N 60°06' E 024°59'3 5.9
2017-Aug-15 06:30N 60°07' E 025°05'3 6.8
2017-Aug-15 06:00N 60°06' E 024°58'0 0.0
2017-Aug-15 05:31N 60°06' E 024°58'3 6.2
2017-Aug-15 05:00N 60°05' E 025°04'3 5.8
2017-Aug-15 04:31N 60°06' E 024°59'0 0.4
2017-Aug-15 04:00N 60°06' E 024°58'2 3.2
2017-Aug-15 03:31N 60°05' E 024°58'2 3.2
2017-Aug-15 03:00N 60°06' E 024°58'510.1
2017-Aug-15 02:30N 60°01' E 024°58'510.1
2017-Aug-15 02:01N 60°06' E 024°58'0 0.0
2017-Aug-15 01:30N 60°06' E 024°58'0 0.0
2017-Aug-15 01:00N 60°06' E 024°58'0 0.0
2017-Aug-15 00:30N 60°06' E 024°58'0 0.0
2017-Aug-15 00:01N 60°06' E 024°58'0 0.0
2017-Aug-14 23:30N 60°06' E 024°58'0 0.0
2017-Aug-14 23:00N 60°06' E 024°58'510.1
2017-Aug-14 22:31N 60°06' E 025°09'510.1
2017-Aug-14 22:00N 60°06' E 024°58'0 0.0
2017-Aug-14 21:30N 60°06' E 024°58'0 0.0
2017-Aug-14 21:00N 60°06' E 024°58'0 0.0
2017-Aug-14 20:30N 60°06' E 024°58'0 0.0
2017-Aug-14 20:00N 60°06' E 024°58'0 0.0
2017-Aug-14 19:30N 60°06' E 024°58'0 0.0
2017-Aug-14 19:00N 60°06' E 024°58'0 0.0
2017-Aug-14 18:30N 60°06' E 024°58'0 0.0
2017-Aug-14 18:00N 60°06' E 024°58'0 0.0
2017-Aug-14 17:30N 60°06' E 024°58'0 0.0
2017-Aug-14 17:00N 60°06' E 024°58'0 0.0
2017-Aug-14 16:30N 60°06' E 024°58'0 0.0
2017-Aug-14 16:00N 60°06' E 024°58'2 4.1
2017-Aug-14 15:30N 60°04' E 024°57'3 7.0
2017-Aug-14 15:01N 60°02' E 025°01'510.0
2017-Aug-14 14:31N 60°01' E 025°11'713.4
2017-Aug-14 14:01N 60°06' E 025°01'1 2.2
2017-Aug-14 13:31N 60°07' E 025°02'2 3.1
2017-Aug-14 13:00N 60°05' E 025°03'3 5.3
2017-Aug-14 12:30N 60°06' E 024°58'0 0.0
2017-Aug-14 12:00N 60°06' E 024°58'0 0.0
2017-Aug-14 11:30N 60°06' E 024°58'0 0.0
2017-Aug-14 11:00N 60°06' E 024°58'1 2.8
2017-Aug-14 10:31N 60°08' E 024°59'3 5.1
2017-Aug-14 10:00N 60°10' E 024°58'1 2.5
2017-Aug-14 09:31N 60°09' E 024°60'3 6.1
2017-Aug-14 09:00N 60°06' E 024°58'0 0.0
2017-Aug-14 08:31N 60°06' E 024°58'4 7.7
2017-Aug-14 08:00N 60°10' E 024°58'2 3.7
2017-Aug-14 07:31N 60°09' E 024°60'3 6.7
2017-Aug-14 07:01N 60°07' E 025°05'1 1.1
2017-Aug-14 06:30N 60°07' E 025°04'3 5.8
2017-Aug-14 06:01N 60°06' E 024°58'0 0.0
2017-Aug-14 05:31N 60°06' E 024°58'0 0.0
2017-Aug-14 05:01N 60°06' E 024°58'0 0.0
2017-Aug-14 04:31N 60°06' E 024°58'3 5.5
2017-Aug-14 04:00N 60°04' E 024°58'2 3.4
2017-Aug-14 03:31N 60°05' E 024°58'0 0.4
2017-Aug-14 03:00N 60°05' E 024°58'1 2.5
2017-Aug-14 02:30N 60°06' E 024°58'510.7
2017-Aug-14 02:00N 60°06' E 025°09'510.7
2017-Aug-14 01:30N 60°06' E 024°58'0 0.0
2017-Aug-14 01:00N 60°06' E 024°58'0 0.0
2017-Aug-14 00:31N 60°06' E 024°58'0 0.0
2017-Aug-14 00:01N 60°06' E 024°58'0 0.0
2017-Aug-13 23:30N 60°06' E 024°58'0 0.0
2017-Aug-13 23:00N 60°06' E 024°58'0 0.0
2017-Aug-13 22:30N 60°06' E 024°58'0 0.0
2017-Aug-13 22:00N 60°06' E 024°58'0 0.0
2017-Aug-13 21:31N 60°06' E 024°58'0 0.0
2017-Aug-13 21:00N 60°06' E 024°58'0 0.0
2017-Aug-13 20:30N 60°06' E 024°58'0 0.0
2017-Aug-13 20:00N 60°06' E 024°58'0 0.0
2017-Aug-13 19:30N 60°06' E 024°58'0 0.0
2017-Aug-13 19:00N 60°06' E 024°58'0 0.0
2017-Aug-13 18:30N 60°06' E 024°58'0 0.0
2017-Aug-13 18:00N 60°06' E 024°58'3 5.2
2017-Aug-13 17:31N 60°09' E 024°56'2 4.1
2017-Aug-13 17:00N 60°10' E 024°58'0 0.3
2017-Aug-13 16:30N 60°10' E 024°58'815.3
2017-Aug-13 16:01N 60°03' E 024°58'4 7.6
2017-Aug-13 15:31N 60°06' E 024°58'0 0.0
2017-Aug-13 15:01N 60°06' E 024°58'0 0.3
2017-Aug-13 14:31N 60°06' E 024°58'0 0.3
2017-Aug-13 14:01N 60°06' E 024°58'0 0.0
2017-Aug-13 13:31N 60°06' E 024°58'0 0.0
2017-Aug-13 13:01N 60°06' E 024°58'4 7.7
2017-Aug-13 12:30N 60°10' E 024°58'0 0.0
2017-Aug-13 12:00N 60°10' E 024°58'1 2.9
2017-Aug-13 11:31N 60°09' E 024°55'3 6.8
2017-Aug-13 11:00N 60°06' E 024°58'0 0.0
2017-Aug-13 10:30N 60°06' E 024°58'0 0.0
2017-Aug-13 10:00N 60°06' E 024°58'0 0.0
2017-Aug-13 09:30N 60°06' E 024°58'4 7.2
2017-Aug-13 09:01N 60°10' E 024°56'1 1.4
2017-Aug-13 08:30N 60°09' E 024°55'3 6.2
2017-Aug-13 08:00N 60°06' E 024°58'0 0.0
2017-Aug-13 07:31N 60°06' E 024°58'0 0.0
2017-Aug-13 07:01N 60°06' E 024°58'0 0.0
2017-Aug-13 06:30N 60°06' E 024°58'0 0.0
2017-Aug-13 06:00N 60°06' E 024°58'0 0.0
2017-Aug-13 05:30N 60°06' E 024°58'0 0.0
2017-Aug-13 05:00N 60°06' E 024°58'0 0.0
2017-Aug-13 04:30N 60°06' E 024°58'0 0.0
2017-Aug-13 04:00N 60°06' E 024°58'2 3.3
2017-Aug-13 03:31N 60°05' E 024°58'2 3.3
2017-Aug-13 03:00N 60°06' E 024°58'0 0.0
2017-Aug-13 02:30N 60°06' E 024°58'0 0.0
2017-Aug-13 02:00N 60°06' E 024°58'0 0.0
2017-Aug-13 01:30N 60°06' E 024°58'0 0.0
2017-Aug-13 01:00N 60°06' E 024°58'0 0.0
2017-Aug-13 00:30N 60°06' E 024°58'0 0.0
2017-Aug-13 00:00N 60°06' E 024°58'0 0.0
2017-Aug-12 23:30N 60°06' E 024°58'0 0.0
2017-Aug-12 23:00N 60°06' E 024°58'0 0.0
2017-Aug-12 22:30N 60°06' E 024°58'0 0.0
2017-Aug-12 22:00N 60°06' E 024°58'0 0.0
2017-Aug-12 21:30N 60°06' E 024°58'0 0.0
2017-Aug-12 21:00N 60°06' E 024°58'0 0.0
2017-Aug-12 20:30N 60°06' E 024°58'0 0.0
2017-Aug-12 20:00N 60°06' E 024°58'0 0.0
2017-Aug-12 19:30N 60°06' E 024°58'0 0.0
2017-Aug-12 19:00N 60°06' E 024°58'0 0.0
2017-Aug-12 18:30N 60°06' E 024°58'0 0.0
2017-Aug-12 18:00N 60°06' E 024°58'0 0.0
2017-Aug-12 17:30N 60°06' E 024°58'0 0.0
2017-Aug-12 17:00N 60°06' E 024°58'0 0.0
2017-Aug-12 16:30N 60°06' E 024°58'0 0.0
2017-Aug-12 16:01N 60°06' E 024°58'5 9.1
2017-Aug-12 15:31N 60°06' E 025°08'5 9.1
2017-Aug-12 15:00N 60°06' E 024°58'1 1.6
2017-Aug-12 14:31N 60°07' E 024°59'3 6.3
2017-Aug-12 14:01N 60°10' E 024°58'2 3.4
2017-Aug-12 13:30N 60°11' E 025°01'0 0.0
2017-Aug-12 13:00N 60°11' E 025°01'0 0.0
2017-Aug-12 12:30N 60°11' E 025°01'4 7.2
2017-Aug-12 12:01N 60°07' E 024°59'4 8.6
2017-Aug-12 11:31N 60°05' E 025°06'4 8.1
2017-Aug-12 11:00N 60°06' E 024°58'0 0.0
2017-Aug-12 10:30N 60°06' E 024°58'0 0.0
2017-Aug-12 10:00N 60°06' E 024°58'0 0.0
2017-Aug-12 09:30N 60°06' E 024°58'0 0.0
2017-Aug-12 09:00N 60°06' E 024°58'0 0.0
2017-Aug-12 08:30N 60°06' E 024°58'0 0.0
2017-Aug-12 08:00N 60°06' E 024°58'0 0.0
2017-Aug-12 07:30N 60°06' E 024°58'0 0.0
2017-Aug-12 07:00N 60°06' E 024°58'0 0.0
2017-Aug-12 06:30N 60°06' E 024°58'0 0.0
2017-Aug-12 06:00N 60°06' E 024°58'0 0.0
2017-Aug-12 05:30N 60°06' E 024°58'0 0.0
2017-Aug-12 05:00N 60°06' E 024°58'0 0.0
2017-Aug-12 04:30N 60°06' E 024°58'0 0.0
2017-Aug-12 04:00N 60°06' E 024°58'0 0.0
2017-Aug-12 03:30N 60°06' E 024°58'0 0.0
2017-Aug-12 03:00N 60°06' E 024°58'0 0.0
2017-Aug-12 02:30N 60°06' E 024°58'0 0.0
2017-Aug-12 02:00N 60°06' E 024°58'0 0.0
2017-Aug-12 01:30N 60°06' E 024°58'0 0.0
2017-Aug-12 01:00N 60°06' E 024°58'0 0.0
2017-Aug-12 00:30N 60°06' E 024°58'0 0.0
2017-Aug-12 00:00N 60°06' E 024°58'0 0.0
2017-Aug-11 23:30N 60°06' E 024°58'0 0.0
2017-Aug-11 23:00N 60°06' E 024°58'0 0.0
2017-Aug-11 22:30N 60°06' E 024°58'0 0.0
2017-Aug-11 22:00N 60°06' E 024°58'0 0.0
2017-Aug-11 21:30N 60°06' E 024°58'0 0.0
2017-Aug-11 21:00N 60°06' E 024°58'0 0.0
2017-Aug-11 20:30N 60°06' E 024°58'510.1
2017-Aug-11 20:00N 60°02' E 024°55'510.0
2017-Aug-11 19:30N 60°06' E 024°58'0 0.3
2017-Aug-11 19:01N 60°06' E 024°59'0 0.3
2017-Aug-11 18:31N 60°06' E 024°58'611.9
2017-Aug-11 18:00N 60°06' E 025°10'1 1.2
2017-Aug-11 17:31N 60°05' E 025°10'1 2.6
2017-Aug-11 17:00N 60°06' E 025°08'5 9.6
2017-Aug-11 16:30N 60°06' E 024°58'0 0.0
2017-Aug-11 16:00N 60°06' E 024°58'1 2.6
2017-Aug-11 15:30N 60°05' E 024°58'5 9.4
2017-Aug-11 15:00N 60°10' E 024°58'7 7.4
2017-Aug-11 14:01N 60°02' E 024°58'4 8.1
2017-Aug-11 13:30N 60°06' E 024°58'0 0.0
2017-Aug-11 13:00N 60°06' E 024°58'0 0.0
2017-Aug-11 12:30N 60°06' E 024°58'0 0.0
2017-Aug-11 12:00N 60°06' E 024°58'0 0.0
2017-Aug-11 11:30N 60°06' E 024°58'0 0.0
2017-Aug-11 11:00N 60°06' E 024°58'0 0.0
2017-Aug-11 10:30N 60°06' E 024°58'0 0.0
2017-Aug-11 10:00N 60°06' E 024°58'0 0.0
2017-Aug-11 09:30N 60°06' E 024°58'0 0.0
2017-Aug-11 09:00N 60°06' E 024°58'4 7.2
2017-Aug-11 08:31N 60°10' E 024°56'4 7.1
2017-Aug-11 08:00N 60°06' E 024°58'1 2.8
2017-Aug-11 07:31N 60°05' E 024°58'3 6.8
2017-Aug-11 07:01N 60°05' E 025°05'4 7.3
2017-Aug-11 06:30N 60°06' E 024°58'0 0.0
2017-Aug-11 06:00N 60°06' E 024°58'0 0.0
2017-Aug-11 05:30N 60°06' E 024°58'0 0.0
2017-Aug-11 05:00N 60°06' E 024°58'0 0.0
2017-Aug-11 04:30N 60°06' E 024°58'4 7.7
2017-Aug-11 04:01N 60°10' E 024°59'1 1.5
2017-Aug-11 03:30N 60°10' E 024°58'713.7
2017-Aug-11 03:01N 60°03' E 024°58'1 2.8
2017-Aug-11 02:30N 60°05' E 024°58'2 3.2
2017-Aug-11 02:00N 60°06' E 024°58'0 0.0
2017-Aug-11 01:31N 60°06' E 024°58'5 9.4
2017-Aug-11 01:01N 60°05' E 025°07'5 9.4
2017-Aug-11 00:30N 60°06' E 024°58'0 0.0
2017-Aug-11 00:01N 60°06' E 024°58'0 0.0
2017-Aug-10 23:30N 60°06' E 024°58'0 0.0
2017-Aug-10 23:00N 60°06' E 024°58'0 0.0
2017-Aug-10 22:30N 60°06' E 024°58'0 0.0
2017-Aug-10 22:00N 60°06' E 024°58'0 0.0
2017-Aug-10 21:30N 60°06' E 024°58'0 0.0
2017-Aug-10 21:00N 60°06' E 024°58'0 0.0
2017-Aug-10 20:30N 60°06' E 024°58'0 0.0
2017-Aug-10 20:00N 60°06' E 024°58'0 0.0
2017-Aug-10 19:30N 60°06' E 024°58'0 0.0
2017-Aug-10 19:00N 60°06' E 024°58'0 0.0
2017-Aug-10 18:30N 60°06' E 024°58'0 0.0
2017-Aug-10 18:00N 60°06' E 024°58'3 6.1
2017-Aug-10 17:31N 60°09' E 024°60'4 8.3
2017-Aug-10 17:00N 60°07' E 025°06'2 4.9
2017-Aug-10 16:30N 60°07' E 025°01'1 2.8
2017-Aug-10 16:00N 60°06' E 024°58'0 0.0
2017-Aug-10 15:30N 60°06' E 024°58'0 0.0
2017-Aug-10 15:00N 60°06' E 024°58'3 6.4
2017-Aug-10 14:31N 60°03' E 024°58'2 1.6
2017-Aug-10 13:31N 60°02' E 024°56'4 9.0
2017-Aug-10 13:00N 60°06' E 025°00'1 1.2
2017-Aug-10 12:31N 60°06' E 025°01'1 2.9
2017-Aug-10 12:01N 60°06' E 024°58'0 0.0
2017-Aug-10 11:30N 60°06' E 024°58'0 0.0
2017-Aug-10 11:01N 60°06' E 024°58'0 0.0
2017-Aug-10 10:31N 60°06' E 024°58'0 0.0
2017-Aug-10 10:00N 60°06' E 024°58'0 0.0
2017-Aug-10 09:31N 60°06' E 024°58'0 0.0
2017-Aug-10 09:01N 60°06' E 024°58'0 0.0
2017-Aug-10 08:31N 60°06' E 024°58'0 0.0
2017-Aug-10 08:01N 60°06' E 024°58'0 0.0
2017-Aug-10 07:31N 60°06' E 024°58'0 0.0
2017-Aug-10 07:00N 60°06' E 024°58'0 0.0
2017-Aug-10 06:31N 60°06' E 024°58'0 0.0
2017-Aug-10 06:01N 60°06' E 024°58'0 0.0
2017-Aug-10 05:31N 60°06' E 024°58'0 0.0
2017-Aug-10 05:01N 60°06' E 024°58'0 0.0
2017-Aug-10 04:30N 60°06' E 024°58'0 0.0
2017-Aug-10 04:01N 60°06' E 024°58'0 0.0
2017-Aug-10 03:30N 60°06' E 024°58'0 0.0
2017-Aug-10 03:01N 60°06' E 024°58'4 8.3
2017-Aug-10 02:30N 60°02' E 024°58'5 9.6
2017-Aug-10 02:00N 60°03' E 025°07'510.6
2017-Aug-10 01:30N 60°06' E 024°58'0 0.0
2017-Aug-10 01:00N 60°06' E 024°58'0 0.0
2017-Aug-10 00:30N 60°06' E 024°58'0 0.0
2017-Aug-10 00:00N 60°06' E 024°58'0 0.0
2017-Aug-09 23:30N 60°06' E 024°58'0 0.0
2017-Aug-09 23:00N 60°06' E 024°58'0 0.0
2017-Aug-09 22:30N 60°06' E 024°58'0 0.0
2017-Aug-09 22:00N 60°06' E 024°58'0 0.0
2017-Aug-09 21:30N 60°06' E 024°58'0 0.0
2017-Aug-09 21:00N 60°06' E 024°58'0 0.0
2017-Aug-09 20:31N 60°06' E 024°58'0 0.0
2017-Aug-09 20:00N 60°06' E 024°58'0 0.0
2017-Aug-09 19:30N 60°06' E 024°58'0 0.0
2017-Aug-09 19:00N 60°06' E 024°58'1 2.4
2017-Aug-09 18:30N 60°07' E 025°01'1 2.6
2017-Aug-09 18:01N 60°07' E 025°03'3 5.0
2017-Aug-09 17:31N 60°06' E 024°58'0 0.0
2017-Aug-09 17:01N 60°06' E 024°58'4 8.7
2017-Aug-09 16:31N 60°02' E 024°58'713.3
2017-Aug-09 16:01N 60°05' E 025°10'611.4
2017-Aug-09 15:30N 60°06' E 024°58'0 0.0
2017-Aug-09 15:01N 60°06' E 024°58'2 4.7
2017-Aug-09 14:31N 60°04' E 024°57'2 4.7
2017-Aug-09 14:01N 60°06' E 024°58'0 0.0
2017-Aug-09 13:31N 60°06' E 024°58'0 0.0
2017-Aug-09 13:01N 60°06' E 024°58'0 0.0
2017-Aug-09 12:30N 60°06' E 024°58'0 0.0
2017-Aug-09 12:01N 60°06' E 024°58'0 0.0
2017-Aug-09 11:31N 60°06' E 024°58'0 0.0
2017-Aug-09 11:00N 60°06' E 024°58'4 7.6
2017-Aug-09 10:30N 60°10' E 024°59'4 7.2
2017-Aug-09 10:01N 60°07' E 024°59'0 0.4
2017-Aug-09 09:30N 60°06' E 024°58'0 0.0
2017-Aug-09 09:00N 60°06' E 024°58'0 0.0
2017-Aug-09 08:30N 60°06' E 024°58'4 7.4
2017-Aug-09 08:01N 60°10' E 024°59'918.1
2017-Aug-09 07:30N 60°01' E 024°57'510.8
2017-Aug-09 07:00N 60°06' E 024°58'0 0.0
2017-Aug-09 06:30N 60°06' E 024°58'0 0.0
2017-Aug-09 06:00N 60°06' E 024°58'0 0.0
2017-Aug-09 05:30N 60°06' E 024°58'510.8
2017-Aug-09 05:01N 60°05' E 025°09'510.8
2017-Aug-09 04:30N 60°06' E 024°58'2 4.4
2017-Aug-09 04:00N 60°04' E 024°58'2 4.4
2017-Aug-09 03:31N 60°06' E 024°58'0 0.0
2017-Aug-09 03:00N 60°06' E 024°58'0 0.0
2017-Aug-09 02:30N 60°06' E 024°58'0 0.0
2017-Aug-09 02:00N 60°06' E 024°58'0 0.0
2017-Aug-09 01:31N 60°06' E 024°58'0 0.0
2017-Aug-09 01:00N 60°06' E 024°58'0 0.0
2017-Aug-09 00:30N 60°06' E 024°58'0 0.0
2017-Aug-09 00:00N 60°06' E 024°58'0 0.0
2017-Aug-08 23:30N 60°06' E 024°58'2 3.8
2017-Aug-08 23:00N 60°06' E 025°02'2 3.4
2017-Aug-08 22:30N 60°06' E 024°59'0 0.5
2017-Aug-08 22:00N 60°06' E 024°58'0 0.0
2017-Aug-08 21:30N 60°06' E 024°58'0 0.0
2017-Aug-08 21:00N 60°06' E 024°58'0 0.0
2017-Aug-08 20:30N 60°06' E 024°58'2 3.5
2017-Aug-08 20:00N 60°07' E 025°02'0 0.9
2017-Aug-08 19:31N 60°07' E 025°03'2 4.4
2017-Aug-08 19:00N 60°06' E 024°58'0 0.0
2017-Aug-08 18:30N 60°06' E 024°58'  

Dump ship's entire track history